Time;durP1;ratioP1;P1;durP2;ratioP2;P2;SDS_P1;SDS_P2;PMS_P1;PMS_P2;Temp;Humidity;BMP_temperature;BMP_pressure;BME280_temperature;BME280_humidity;BME280_pressure;Samples;Min_cycle;Max_cycle;Signal;HPM_P1;HPM_P2
2022/10/04 00:01:57;;;;;;;6.03;4.30;;;13.10;91.70;;;13.50;58.39;99443.91;4982917;28;119028;-74
2022/10/04 00:04:41;;;;;;;5.43;4.23;;;13.10;91.80;;;13.49;58.56;99442.28;4980631;28;119315;-74
2022/10/04 00:07:26;;;;;;;8.57;5.10;;;13.10;91.80;;;13.46;58.63;99431.81;4982047;28;124050;-74
2022/10/04 00:10:17;;;;;;;7.10;4.60;;;13.10;91.90;;;13.44;58.74;99439.63;4980388;28;124130;-73
2022/10/04 00:12:58;;;;;;;8.43;4.53;;;13.10;91.90;;;13.40;58.77;99433.06;4983836;28;119779;-73
2022/10/04 00:15:28;;;;;;;9.70;5.07;;;13.10;91.90;;;13.37;58.70;99434.50;4980233;28;119039;-73
2022/10/04 00:18:09;;;;;;;6.37;4.57;;;13.00;91.90;;;13.37;58.71;99439.25;4958861;28;123139;-73
2022/10/04 00:20:52;;;;;;;9.87;6.53;;;13.00;91.90;;;13.35;58.71;99433.19;4976615;28;123687;-74
2022/10/04 00:23:24;;;;;;;5.87;4.40;;;13.10;92.00;;;13.33;58.91;99427.97;4975042;28;119360;-74
2022/10/04 00:25:55;;;;;;;7.20;4.80;;;13.00;92.00;;;13.30;58.92;99439.69;4987530;28;118297;-73
2022/10/04 00:28:24;;;;;;;6.30;4.47;;;12.90;91.90;;;13.29;58.76;99428.91;4970250;28;122953;-73
2022/10/04 00:31:09;;;;;;;10.10;6.00;;;12.90;92.00;;;13.28;58.97;99424.50;4977615;28;123956;-74
2022/10/04 00:33:44;;;;;;;6.00;4.20;;;12.90;92.00;;;13.26;58.99;99425.59;4982333;28;119233;-74
2022/10/04 00:36:22;;;;;;;6.73;4.67;;;12.90;92.00;;;13.25;58.91;99437.00;4985458;28;118940;-74
2022/10/04 00:39:10;;;;;;;6.17;3.73;;;12.90;92.10;;;13.22;58.88;99432.09;4982503;28;122354;-74
2022/10/04 00:41:46;;;;;;;7.80;4.87;;;12.80;92.10;;;13.19;59.01;99422.44;4959904;28;123676;-74
2022/10/04 00:44:39;;;;;;;8.27;5.27;;;12.80;92.10;;;13.18;59.07;99425.50;4986798;28;120366;-74
2022/10/04 00:47:46;;;;;;;6.70;4.27;;;12.80;92.20;;;13.13;59.06;99423.69;4986402;28;119997;-74
2022/10/04 00:50:40;;;;;;;6.87;4.70;;;12.70;92.10;;;13.11;59.30;99420.41;4949210;28;123564;-74
2022/10/04 00:53:19;;;;;;;10.57;4.83;;;12.70;92.20;;;13.10;59.47;99415.16;4975725;28;123569;-74
2022/10/04 00:55:57;;;;;;;8.03;4.30;;;12.80;92.30;;;13.06;59.40;99415.00;4981664;28;119364;-74
2022/10/04 00:58:30;;;;;;;6.90;4.27;;;12.70;92.20;;;13.06;59.19;99409.44;4984320;28;119045;-74
2022/10/04 01:00:58;;;;;;;8.50;4.67;;;12.70;92.30;;;13.04;59.18;99408.94;4976124;28;123051;-74
2022/10/04 01:03:38;;;;;;;5.60;4.30;;;12.60;92.30;;;13.04;59.46;99414.47;4985063;28;124327;-74
2022/10/04 01:06:10;;;;;;;11.40;4.93;;;12.60;92.30;;;13.04;59.35;99420.03;4981235;28;119064;-74
2022/10/04 01:08:52;;;;;;;6.83;5.00;;;12.60;92.30;;;13.02;59.46;99416.72;4971474;28;119813;-75
2022/10/04 01:11:36;;;;;;;10.13;3.93;;;12.60;92.30;;;13.00;59.58;99413.44;4968408;28;124863;-74
2022/10/04 01:14:39;;;;;;;5.70;4.90;;;12.60;92.30;;;12.96;59.25;99420.78;4977540;28;123303;-75
2022/10/04 01:17:08;;;;;;;10.53;5.27;;;12.60;92.40;;;12.93;59.46;99415.84;4958662;28;118795;-75
2022/10/04 01:19:34;;;;;;;9.10;4.33;;;12.50;92.30;;;12.91;59.50;99410.59;4989251;28;118446;-74
2022/10/04 01:22:08;;;;;;;8.03;4.77;;;12.60;92.40;;;12.91;59.58;99407.00;4980281;28;124685;-73
2022/10/04 01:24:38;;;;;;;6.90;4.27;;;12.50;92.50;;;12.90;59.80;99416.47;4977286;28;123874;-74
2022/10/04 01:27:34;;;;;;;8.80;5.20;;;12.50;92.50;;;12.87;59.69;99404.06;4967318;28;119537;-73
2022/10/04 01:30:08;;;;;;;6.80;4.70;;;12.50;92.50;;;12.86;59.88;99407.13;4976652;28;119049;-74
2022/10/04 01:32:36;;;;;;;6.30;4.80;;;12.40;92.50;;;12.85;59.73;99405.50;4973688;28;124139;-76
2022/10/04 01:35:04;;;;;;;5.87;4.70;;;12.70;92.70;;;12.83;59.83;99397.47;4983708;28;123557;-74
2022/10/04 01:37:30;;;;;;;7.80;5.50;;;12.40;92.60;;;12.82;59.72;99395.84;4989218;28;120467;-76
2022/10/04 01:39:57;;;;;;;7.87;4.90;;;12.40;92.60;;;12.82;59.84;99393.91;4984932;28;120415;-74
2022/10/04 01:42:44;;;;;;;6.10;4.67;;;14.10;93.40;;;12.81;59.77;99389.50;4973738;28;125173;-74
2022/10/04 01:45:22;;;;;;;8.30;5.60;;;12.40;92.60;;;12.78;60.14;99384.56;4976400;28;123867;-74
2022/10/04 01:48:06;;;;;;;8.03;5.37;;;12.40;92.70;;;12.76;60.03;99381.28;4977115;28;119428;-74
2022/10/04 01:50:46;;;;;;;7.33;5.27;;;12.30;92.60;;;12.73;59.77;99369.97;4977778;28;119207;-74
2022/10/04 01:53:27;;;;;;;6.43;4.47;;;12.30;92.60;;;12.71;59.76;99369.50;4967462;28;123308;-74
2022/10/04 01:56:05;;;;;;;7.43;5.20;;;12.30;92.60;;;12.67;59.90;99363.75;4969020;28;123097;-74
2022/10/04 01:58:47;;;;;;;8.67;4.50;;;12.20;92.60;;;12.63;59.81;99361.91;4978675;28;119259;-74
2022/10/04 02:01:42;;;;;;;4.97;4.40;;;12.20;92.60;;;12.58;60.01;99376.72;4973359;28;119429;-74
2022/10/04 02:04:16;;;;;;;7.33;4.23;;;12.20;92.70;;;12.56;59.94;99367.88;4980061;28;124440;-74
2022/10/04 02:06:45;;;;;;;7.13;4.43;;;12.10;92.70;;;12.54;59.82;99368.19;4967288;28;124436;-73
2022/10/04 02:09:21;;;;;;;11.30;5.23;;;12.10;92.70;;;12.54;60.16;99367.38;4970451;28;119320;-73
2022/10/04 02:11:51;;;;;;;8.20;5.70;;;12.20;92.80;;;12.52;59.98;99364.09;4979576;28;118962;-74
2022/10/04 02:14:25;;;;;;;7.77;5.27;;;12.10;92.70;;;12.51;60.29;99356.91;4983574;28;124702;-74
2022/10/04 02:17:11;;;;;;;7.80;4.63;;;12.10;92.70;;;12.49;60.07;99364.72;4980066;28;122923;-77
2022/10/04 02:19:41;;;;;;;6.80;4.70;;;12.10;92.70;;;12.48;60.07;99369.44;4974506;28;119829;-75
2022/10/04 02:22:09;;;;;;;6.40;4.70;;;12.00;92.80;;;12.49;60.31;99365.56;4979540;28;119006;-74
2022/10/04 02:24:42;;;;;;;8.13;5.13;;;12.10;92.80;;;12.49;60.37;99357.25;4970160;28;124419;-74
2022/10/04 02:27:08;;;;;;;7.93;4.90;;;12.10;92.80;;;12.48;60.29;99366.66;4970221;28;122926;-74
2022/10/04 02:29:35;;;;;;;6.43;4.80;;;12.10;92.90;;;12.46;60.30;99360.59;4982466;28;120074;-74
2022/10/04 02:34:54;;;;;;;6.90;4.47;;;12.00;93.20;;;12.45;60.48;99347.06;4980755;28;125030;-74
2022/10/04 02:37:24;;;;;;;7.33;5.27;;;12.00;92.90;;;12.45;60.48;99349.84;4977547;28;122489;-74
2022/10/04 02:40:08;;;;;;;8.63;4.30;;;12.00;92.90;;;12.45;60.35;99347.06;4980101;28;119554;-75
2022/10/04 02:42:47;;;;;;;10.30;4.50;;;12.00;92.90;;;12.44;60.22;99351.81;4976076;28;118731;-74
2022/10/04 02:45:32;;;;;;;6.43;4.77;;;12.00;92.90;;;12.44;60.44;99350.97;4978419;28;124224;-75
2022/10/04 02:48:10;;;;;;;8.10;4.70;;;12.00;93.00;;;12.43;60.44;99346.56;4974281;28;123896;-74
2022/10/04 02:50:48;;;;;;;5.63;3.97;;;12.00;93.00;;;12.40;60.17;99350.78;4979637;28;119292;-75
2022/10/04 02:53:21;;;;;;;7.30;4.73;;;11.90;92.90;;;12.36;60.23;99347.81;4974644;28;118462;-75
2022/10/04 02:55:48;;;;;;;6.60;4.47;;;11.90;93.20;;;12.31;60.22;99342.38;4973412;28;124821;-76
2022/10/04 02:58:18;;;;;;;7.47;4.60;;;11.90;92.90;;;12.28;60.24;99348.53;4979490;28;122750;-74
2022/10/04 03:00:56;;;;;;;8.73;4.40;;;12.00;93.00;;;12.25;60.18;99343.63;4969144;28;120083;-75
2022/10/04 03:03:36;;;;;;;4.90;3.83;;;11.80;92.90;;;12.25;60.30;99340.00;4980492;28;119045;-75
2022/10/04 03:06:18;;;;;;;5.87;4.37;;;11.80;92.90;;;12.24;60.44;99338.38;4974827;28;124087;-74
2022/10/04 03:08:49;;;;;;;6.53;4.97;;;11.80;92.90;;;12.22;60.66;99335.91;4973790;28;123688;-74
2022/10/04 03:11:21;;;;;;;6.30;4.53;;;11.80;92.90;;;12.21;60.54;99331.50;4971238;28;119510;-74
2022/10/04 03:13:54;;;;;;;5.30;4.20;;;12.50;93.30;;;12.22;60.53;99333.16;4977357;28;118818;-75
2022/10/04 03:16:21;;;;;;;6.60;4.20;;;11.80;93.00;;;12.20;60.83;99337.34;4983851;28;123926;-75
2022/10/04 03:18:49;;;;;;;11.73;4.77;;;11.80;93.20;;;12.20;60.63;99326.28;4968298;28;122395;-75
2022/10/04 03:21:19;;;;;;;7.30;4.50;;;11.80;93.00;;;12.20;60.52;99335.44;4986456;28;119976;-75
2022/10/04 03:23:49;;;;;;;7.33;4.27;;;11.80;93.00;;;12.19;60.49;99321.88;4990757;28;119113;-75
2022/10/04 03:26:23;;;;;;;6.40;4.60;;;11.70;93.00;;;12.20;60.50;99324.34;4975972;28;124646;-77
2022/10/04 03:28:50;;;;;;;5.73;4.10;;;11.70;93.00;;;12.19;60.60;99327.41;4979477;28;123765;-75
2022/10/04 03:31:18;;;;;;;6.83;3.97;;;11.70;93.00;;;12.18;60.26;99325.78;4983636;28;120014;-75
2022/10/04 03:33:45;;;;;;;6.60;4.80;;;11.70;93.00;;;12.17;60.35;99322.19;4982880;28;118973;-74
2022/10/04 03:36:16;;;;;;;5.63;4.50;;;11.80;93.00;;;12.15;60.66;99322.50;4972962;28;122928;-74
2022/10/04 03:38:44;;;;;;;6.30;4.47;;;11.70;93.00;;;12.14;60.48;99315.34;4985043;28;124371;-75
2022/10/04 03:41:12;;;;;;;6.23;4.83;;;11.90;93.10;;;12.14;60.57;99320.03;4973108;28;118769;-74
2022/10/04 03:43:44;;;;;;;7.10;3.87;;;11.70;93.00;;;12.13;60.56;99335.00;4988546;28;118753;-75
2022/10/04 03:46:13;;;;;;;7.60;3.90;;;12.40;93.30;;;12.11;60.26;99323.41;4977885;28;124558;-74
2022/10/04 03:48:52;;;;;;;8.87;4.00;;;11.80;93.10;;;12.13;60.57;99332.25;4981865;28;123757;-75
2022/10/04 03:51:25;;;;;;;6.00;4.50;;;11.70;93.00;;;12.11;60.70;99326.19;4972468;28;118860;-75
2022/10/04 03:53:55;;;;;;;6.07;4.30;;;11.70;93.10;;;12.11;60.58;99323.41;4969889;28;118050;-76
2022/10/04 03:56:26;;;;;;;11.37;4.97;;;11.70;93.10;;;12.09;60.51;99320.13;4987034;28;123872;-75
2022/10/04 03:58:54;;;;;;;5.13;4.20;;;11.60;93.00;;;12.06;60.68;99317.97;4980016;28;124433;-75
2022/10/04 04:01:45;;;;;;;6.53;4.50;;;11.60;93.00;;;12.05;60.43;99321.91;4986812;28;119486;-75
2022/10/04 04:04:23;;;;;;;6.13;4.70;;;11.60;93.10;;;12.02;60.34;99322.53;4969917;28;118122;-74
2022/10/04 04:07:00;;;;;;;5.37;3.73;;;11.60;93.10;;;12.00;60.98;99322.00;4974616;28;123149;-74
2022/10/04 04:09:55;;;;;;;6.30;4.70;;;11.60;93.10;;;11.98;60.91;99315.94;4954685;28;122751;-74
2022/10/04 04:12:47;;;;;;;6.37;4.60;;;11.60;93.20;;;11.97;60.55;99317.09;4965473;28;120256;-75
2022/10/04 04:15:16;;;;;;;5.70;4.43;;;11.60;93.20;;;11.94;60.77;99313.78;4968381;28;120484;-75
2022/10/04 04:17:46;;;;;;;5.90;4.80;;;11.60;93.20;;;11.96;61.12;99323.75;4973064;28;123468;-75
2022/10/04 04:20:27;;;;;;;6.00;4.40;;;11.50;93.20;;;11.97;60.84;99317.09;4969972;28;123837;-74
2022/10/04 04:23:04;;;;;;;5.67;3.70;;;11.50;93.20;;;11.98;60.93;99321.47;4969631;28;119234;-75
2022/10/04 04:25:37;;;;;;;7.43;5.13;;;11.50;93.20;;;11.96;60.92;99316.28;4971632;28;120145;-76
2022/10/04 04:28:31;;;;;;;6.07;4.47;;;11.50;93.20;;;11.93;60.95;99317.72;4973550;28;123960;-75
2022/10/04 04:31:18;;;;;;;7.80;4.43;;;11.50;93.20;;;11.91;60.85;99310.84;4978663;28;123885;-74
2022/10/04 04:33:59;;;;;;;7.70;4.10;;;11.50;93.20;;;11.90;60.89;99310.03;4977885;28;119350;-75
2022/10/04 04:36:37;;;;;;;13.40;5.30;;;11.50;93.20;;;11.87;61.10;99305.06;4964396;28;118029;-74
2022/10/04 04:39:40;;;;;;;7.47;4.83;;;11.40;93.20;;;11.86;60.67;99297.91;4970843;28;123107;-75
2022/10/04 04:42:09;;;;;;;5.90;4.17;;;11.40;93.20;;;11.84;60.78;99304.84;4973264;28;123930;-74
2022/10/04 04:44:45;;;;;;;7.47;5.37;;;11.40;93.20;;;11.82;61.03;99309.88;4979141;28;119352;-74
2022/10/04 04:47:36;;;;;;;7.33;4.27;;;11.50;93.20;;;11.80;61.23;99299.13;4977867;28;119051;-75
2022/10/04 04:50:19;;;;;;;12.93;4.93;;;11.40;93.20;;;11.77;61.22;99299.75;4980742;28;124079;-74
2022/10/04 04:53:05;;;;;;;6.40;4.33;;;11.40;93.30;;;11.74;60.73;99308.66;4984800;28;123443;-74
2022/10/04 04:55:44;;;;;;;6.97;4.87;;;11.40;93.30;;;11.73;61.11;99321.66;4978531;28;119419;-75
2022/10/04 04:58:20;;;;;;;7.50;4.43;;;11.30;93.30;;;11.73;61.37;99326.38;4971422;28;118255;-75
2022/10/04 05:01:04;;;;;;;5.73;4.77;;;11.30;93.40;;;11.73;61.21;99327.19;4980604;28;124038;-76
2022/10/04 05:03:32;;;;;;;7.23;4.90;;;11.30;93.40;;;11.72;60.89;99335.81;4979838;28;124252;-74
2022/10/04 05:06:03;;;;;;;9.77;4.77;;;11.30;93.40;;;11.72;61.04;99341.38;4975824;28;120260;-74
2022/10/04 05:08:32;;;;;;;8.60;5.23;;;11.70;93.60;;;11.71;61.50;99348.00;4983399;28;120383;-76
2022/10/04 05:11:08;;;;;;;6.73;4.60;;;11.20;93.40;;;11.69;61.22;99347.50;4975716;28;123073;-75
2022/10/04 05:13:44;;;;;;;6.50;4.70;;;11.30;93.40;;;11.67;61.08;99355.28;4981308;28;122493;-75
2022/10/04 05:16:26;;;;;;;7.90;4.63;;;11.20;93.40;;;11.62;61.09;99347.09;4983073;28;119838;-73
2022/10/04 05:19:03;;;;;;;8.27;4.83;;;11.50;93.50;;;11.57;61.41;99345.22;4974053;28;118737;-73
2022/10/04 05:21:33;;;;;;;9.00;6.10;;;11.20;93.40;;;11.47;61.56;99348.19;4972430;28;123643;-73
2022/10/04 05:24:18;;;;;;;10.07;6.20;;;11.00;93.50;;;11.35;61.53;99358.94;4985857;28;123328;-73
2022/10/04 05:26:53;;;;;;;7.07;5.37;;;11.00;93.80;;;11.19;62.42;99355.59;4978835;28;119315;-74
2022/10/04 05:29:27;;;;;;;6.30;5.13;;;11.60;94.70;;;11.08;63.29;99359.69;4975561;28;119463;-73
2022/10/04 05:32:57;;;;;;;9.37;5.33;;;10.70;94.50;;;10.99;62.92;99359.56;4934526;28;123179;-73
2022/10/04 05:35:28;;;;;;;8.10;5.37;;;10.50;94.40;;;10.95;63.22;99351.00;4984241;28;123922;-73
2022/10/04 05:38:26;;;;;;;6.00;4.47;;;10.50;94.40;;;10.95;63.11;99356.53;4982778;28;119371;-73
2022/10/04 05:41:38;;;;;;;6.93;4.90;;;10.50;94.40;;;10.94;62.97;99359.63;4956240;28;118769;-73
2022/10/04 05:44:30;;;;;;;10.00;5.10;;;10.50;94.40;;;10.94;63.28;99365.97;4910563;28;123504;-73
2022/10/04 05:47:00;;;;;;;7.33;5.30;;;10.50;94.40;;;10.94;63.48;99359.63;4954078;28;123729;-74
2022/10/04 05:49:47;;;;;;;9.67;4.93;;;10.50;94.50;;;10.97;62.96;99351.53;4976508;28;118756;-73
2022/10/04 05:52:32;;;;;;;7.93;4.73;;;10.50;94.50;;;11.02;62.82;99351.47;4965806;28;118814;-74
2022/10/04 05:55:27;;;;;;;9.63;4.70;;;10.50;94.50;;;11.05;62.64;99345.31;4981201;28;124560;-73
2022/10/04 05:58:24;;;;;;;7.13;4.70;;;10.60;94.50;;;11.11;62.81;99343.28;4960525;28;123961;-73
2022/10/04 06:01:30;;;;;;;6.53;4.80;;;10.60;94.40;;;11.15;62.98;99351.78;4967575;28;119324;-72
2022/10/04 06:04:18;;;;;;;8.83;5.23;;;10.60;94.40;;;11.19;62.80;99350.91;4976318;28;119817;-73
2022/10/04 06:07:22;;;;;;;10.67;4.83;;;10.70;94.40;;;11.22;63.00;99349.47;4982012;28;124103;-73
2022/10/04 06:10:36;;;;;;;7.73;4.60;;;10.70;94.40;;;11.26;62.94;99351.34;4942988;28;122904;-73
2022/10/04 06:13:14;;;;;;;7.10;4.13;;;10.80;94.40;;;11.30;62.72;99343.25;4978490;28;118878;-72
2022/10/04 06:15:57;;;;;;;9.13;4.20;;;10.80;94.30;;;11.33;62.47;99353.69;4980455;28;119438;-73
2022/10/04 06:18:41;;;;;;;7.83;4.40;;;10.80;94.30;;;11.35;62.75;99343.16;4961804;28;97966;-74
2022/10/04 06:21:24;;;;;;;6.63;4.57;;;10.80;94.30;;;11.38;62.29;99342.53;4977654;28;123773;-73
2022/10/04 06:24:11;;;;;;;6.80;4.10;;;10.90;94.30;;;11.43;62.45;99345.22;4980426;28;118420;-73
2022/10/04 06:26:47;;;;;;;8.80;5.13;;;10.90;94.30;;;11.46;62.29;99349.31;4977207;28;119048;-73
2022/10/04 06:29:19;;;;;;;7.80;4.93;;;10.90;94.30;;;11.50;62.22;99348.41;4964584;28;123128;-74
2022/10/04 06:32:10;;;;;;;10.10;4.83;;;11.00;94.30;;;11.56;61.94;99348.31;4967015;28;123425;-73
2022/10/04 06:34:48;;;;;;;10.10;5.47;;;11.00;94.30;;;11.58;62.15;99351.56;4967365;28;119084;-74
2022/10/04 06:37:40;;;;;;;9.33;4.70;;;11.00;94.30;;;11.61;62.06;99357.34;4965903;28;119361;-73
2022/10/04 06:40:19;;;;;;;6.37;4.47;;;11.10;94.30;;;11.62;62.21;99358.16;4966750;28;123131;-73
2022/10/04 06:42:48;;;;;;;6.53;4.07;;;11.10;94.30;;;11.65;62.28;99363.06;4962897;28;123769;-74
2022/10/04 06:45:52;;;;;;;13.57;5.40;;;11.20;94.30;;;11.71;61.89;99356.31;4965502;28;119360;-73
2022/10/04 06:49:06;;;;;;;8.70;4.00;;;11.10;94.20;;;11.75;61.74;99357.34;4970611;28;120174;-73
2022/10/04 06:51:55;;;;;;;6.63;3.80;;;11.20;94.20;;;11.77;61.86;99343.19;4966639;28;124372;-73
2022/10/04 06:54:49;;;;;;;8.90;5.83;;;11.30;94.20;;;11.81;61.64;99342.28;4976905;28;124092;-73
2022/10/04 06:58:01;;;;;;;7.67;4.83;;;11.20;94.10;;;11.83;61.65;99348.34;4982252;28;119533;-72
2022/10/04 07:00:36;;;;;;;6.77;4.40;;;11.20;94.10;;;11.85;61.81;99348.84;4971939;28;119627;-72
2022/10/04 07:03:18;;;;;;;7.40;5.17;;;11.40;94.20;;;11.86;61.93;99347.75;4978175;28;124045;-72
2022/10/04 07:05:50;;;;;;;10.20;5.67;;;11.30;94.20;;;11.86;61.95;99352.47;4970582;28;124624;-73
2022/10/04 07:08:50;;;;;;;14.63;5.87;;;10.20;93.70;;;11.83;62.13;99350.28;4985089;28;119338;-73
2022/10/04 07:11:34;;;;;;;11.53;5.47;;;11.30;94.30;;;11.81;62.01;99349.75;4954388;28;118939;-72
2022/10/04 07:14:10;;;;;;;11.50;5.00;;;11.20;94.30;;;11.82;62.36;99351.41;4985205;28;123594;-72
2022/10/04 07:16:45;;;;;;;23.17;5.10;;;11.30;94.40;;;11.85;62.27;99348.84;4972486;28;124887;-72
2022/10/04 07:19:18;;;;;;;11.53;6.43;;;11.30;94.40;;;11.85;62.40;99348.84;4985582;28;119406;-72
2022/10/04 07:22:24;;;;;;;8.40;5.57;;;11.30;94.40;;;11.79;62.11;99341.75;4973341;28;119861;-72
2022/10/04 07:25:05;;;;;;;9.67;5.10;;;11.20;94.40;;;11.81;62.57;99353.34;4955191;28;123792;-73
2022/10/04 07:31:02;;;;;;;7.50;5.10;;;11.30;94.50;;;11.86;62.48;99364.34;4981446;28;119263;-73
2022/10/04 07:33:44;;;;;;;10.77;5.53;;;11.40;94.50;;;11.84;62.35;99372.13;4982329;28;119348;-73
2022/10/04 07:36:25;;;;;;;7.73;4.63;;;11.20;94.50;;;11.82;62.47;99374.38;4985780;28;125193;-73
2022/10/04 07:39:20;;;;;;;5.70;4.50;;;11.60;94.70;;;11.81;62.14;99371.91;4984370;28;123833;-74
2022/10/04 07:42:25;;;;;;;9.60;5.23;;;11.30;94.50;;;11.74;62.56;99377.88;4972333;28;117683;-74
2022/10/04 07:45:08;;;;;;;8.03;5.60;;;11.20;94.50;;;11.71;62.54;99384.00;4986915;28;119472;-75
2022/10/04 07:47:35;;;;;;;8.50;5.60;;;11.10;94.60;;;11.68;62.50;99401.22;4987485;28;124065;-73
2022/10/04 07:50:48;;;;;;;8.87;5.23;;;11.10;94.60;;;11.69;62.87;99408.41;4986332;28;124172;-73
2022/10/04 07:53:27;;;;;;;6.73;4.73;;;11.20;94.70;;;11.74;62.93;99405.56;4970009;28;119323;-75
2022/10/04 07:56:06;;;;;;;7.13;4.97;;;11.20;94.70;;;11.80;63.02;99411.81;4969557;28;120528;-73
2022/10/04 07:59:09;;;;;;;16.23;6.77;;;11.20;94.70;;;11.81;62.72;99400.41;4964936;28;124127;-74
2022/10/04 08:02:16;;;;;;;7.50;4.47;;;11.30;94.80;;;11.82;62.44;99399.31;4959250;28;122517;-74
2022/10/04 08:05:16;;;;;;;10.20;5.07;;;11.20;94.70;;;11.87;62.57;99393.69;4965591;28;118320;-75
2022/10/04 08:08:15;;;;;;;8.90;5.27;;;11.30;94.70;;;11.91;62.69;99389.19;4964781;28;117751;-74
2022/10/04 08:11:09;;;;;;;13.63;5.17;;;11.30;94.70;;;11.99;62.45;99381.28;4966301;28;124836;-73
2022/10/04 08:14:25;;;;;;;9.93;5.00;;;11.40;94.70;;;12.07;62.30;99380.56;4971301;28;124235;-74
2022/10/04 08:17:10;;;;;;;8.10;4.47;;;11.50;94.70;;;12.18;62.31;99379.22;4965133;28;119623;-74
2022/10/04 08:20:18;;;;;;;7.80;4.17;;;11.50;94.60;;;12.28;62.02;99379.03;4975597;28;118964;-74
2022/10/04 08:23:40;;;;;;;7.70;4.70;;;11.70;94.70;;;12.38;61.93;99373.28;4979353;28;122975;-73
2022/10/04 08:26:36;;;;;;;8.23;5.10;;;11.80;94.60;;;12.45;61.83;99358.97;4960962;28;124567;-74
2022/10/04 08:29:42;;;;;;;7.53;5.07;;;11.80;94.60;;;12.53;61.54;99365.75;4976129;28;119559;-74
2022/10/04 08:32:22;;;;;;;8.23;4.70;;;11.90;94.50;;;12.59;61.51;99354.22;4975513;28;119184;-73
2022/10/04 08:35:28;;;;;;;7.37;4.43;;;11.90;94.50;;;12.64;61.32;99355.25;4980099;28;123026;-73
2022/10/04 08:38:30;;;;;;;6.63;3.80;;;12.00;94.40;;;12.72;61.44;99363.63;4977986;28;124560;-73
2022/10/04 08:41:39;;;;;;;7.80;4.80;;;12.10;94.40;;;12.82;61.13;99349.53;4967707;28;118327;-73
2022/10/04 08:44:33;;;;;;;5.53;4.63;;;12.20;94.40;;;12.92;61.33;99355.94;4973022;28;118495;-74
2022/10/04 08:47:53;;;;;;;8.13;5.10;;;12.30;94.40;;;13.01;61.14;99354.91;4965429;28;123895;-75
2022/10/04 08:51:10;;;;;;;8.83;5.23;;;12.40;94.40;;;13.05;60.89;99361.44;4960297;28;123557;-75
2022/10/04 08:53:48;;;;;;;9.30;5.30;;;12.40;94.30;;;13.11;60.63;99370.47;4971731;28;120610;-74
2022/10/04 08:56:56;;;;;;;8.10;4.87;;;12.50;94.30;;;13.11;60.94;99369.63;4969239;28;120400;-74
2022/10/04 08:59:46;;;;;;;6.13;4.70;;;12.50;94.30;;;13.14;60.78;99375.41;4966540;28;124643;-74
2022/10/04 09:02:47;;;;;;;11.63;5.73;;;12.50;94.30;;;13.18;61.13;99381.94;4969696;28;124326;-74
2022/10/04 09:05:54;;;;;;;7.60;4.67;;;12.60;94.30;;;13.22;60.81;99388.50;4979463;28;119348;-73
2022/10/04 09:09:05;;;;;;;8.77;5.20;;;12.60;94.30;;;13.22;60.99;99376.59;4984186;28;119193;-73
2022/10/04 09:11:50;;;;;;;10.47;5.10;;;12.60;94.50;;;13.24;60.92;99377.91;4978247;28;123749;-74
2022/10/04 09:14:33;;;;;;;9.50;5.07;;;12.70;94.20;;;13.32;60.87;99381.06;4981253;28;123865;-75
2022/10/04 09:17:27;;;;;;;6.37;4.17;;;12.70;94.20;;;13.42;60.59;99383.59;4973209;28;119036;-77
2022/10/04 09:20:12;;;;;;;7.90;4.70;;;12.80;94.20;;;13.51;60.47;99378.91;4980521;28;119440;-76
2022/10/04 09:22:47;;;;;;;8.13;4.27;;;12.90;94.10;;;13.58;60.43;99368.19;4979510;28;123608;-77
2022/10/04 09:25:22;;;;;;;13.30;5.27;;;13.00;94.10;;;13.69;60.24;99377.06;4979212;28;124023;-75
2022/10/04 09:28:19;;;;;;;7.80;4.63;;;13.00;94.00;;;13.78;60.01;99374.31;4978176;28;119260;-75
2022/10/04 09:30:58;;;;;;;6.37;4.70;;;13.10;93.90;;;13.86;59.67;99362.41;4979043;28;118883;-76
2022/10/04 09:33:45;;;;;;;9.50;4.23;;;13.20;93.90;;;13.95;59.76;99354.97;4979332;28;126169;-74
2022/10/04 09:36:33;;;;;;;7.77;4.30;;;13.30;93.80;;;14.03;59.45;99348.63;4982070;28;126939;-74
2022/10/04 09:39:27;;;;;;;9.37;3.70;;;14.30;94.20;;;14.14;59.43;99344.38;4971861;28;118541;-74
2022/10/04 09:42:18;;;;;;;5.70;4.00;;;13.50;93.80;;;14.29;59.24;99350.63;4975725;28;119040;-74
2022/10/04 09:45:15;;;;;;;5.70;3.60;;;13.60;93.70;;;14.42;59.05;99346.88;4977539;28;124505;-77
2022/10/04 09:48:06;;;;;;;4.47;3.10;;;13.70;93.60;;;14.55;58.75;99332.06;4980011;28;123678;-74
2022/10/04 09:50:56;;;;;;;6.60;3.97;;;13.90;93.60;;;14.70;58.61;99346.66;4976270;28;120676;-72
2022/10/04 09:53:53;;;;;;;6.13;4.10;;;14.00;93.60;;;14.84;58.43;99338.94;4978519;28;119625;-75
2022/10/04 09:56:49;;;;;;;8.30;3.97;;;14.10;93.50;;;14.98;58.04;99344.34;4980264;28;125144;-75
2022/10/04 09:59:45;;;;;;;7.37;4.20;;;14.30;93.40;;;15.08;58.10;99335.66;4971554;28;123605;-75
2022/10/04 10:03:12;;;;;;;6.90;3.40;;;14.40;93.30;;;15.21;58.02;99337.44;4978770;28;119197;-76
2022/10/04 10:06:28;;;;;;;4.80;3.60;;;14.50;93.20;;;15.36;57.33;99338.06;4979634;28;118487;-72
2022/10/04 10:09:08;;;;;;;5.67;2.87;;;14.60;93.10;;;15.48;56.96;99321.50;4975611;28;123980;-75
2022/10/04 10:15:06;;;;;;;8.67;3.23;;;14.90;93.00;;;15.70;56.20;99323.25;4981301;28;120003;-75
2022/10/04 10:17:53;;;;;;;8.50;2.83;;;15.00;92.40;;;15.79;55.45;99323.19;4959932;28;118924;-73
2022/10/04 10:20:53;;;;;;;6.33;3.43;;;15.10;92.00;;;15.88;55.37;99332.34;4978582;28;124531;-72
2022/10/04 10:23:51;;;;;;;6.80;3.83;;;15.10;91.80;;;15.98;55.14;99339.50;4975720;28;123959;-73
2022/10/04 10:26:41;;;;;;;5.90;3.50;;;15.30;91.70;;;16.07;55.02;99327.19;4980120;28;120719;-72
2022/10/04 10:29:36;;;;;;;4.80;3.30;;;15.50;91.70;;;16.20;54.88;99330.03;4983955;28;119056;-73
2022/10/04 10:32:40;;;;;;;7.50;3.30;;;15.60;91.60;;;16.32;54.64;99324.56;4981400;28;124011;-73
2022/10/04 10:35:31;;;;;;;5.73;3.10;;;15.70;91.40;;;16.44;54.14;99327.44;4979749;28;124241;-74
2022/10/04 10:38:49;;;;;;;7.27;3.50;;;15.80;91.20;;;16.55;53.60;99327.88;4984013;28;120446;-75
2022/10/04 10:41:50;;;;;;;4.47;2.77;;;15.90;90.70;;;16.68;53.57;99320.38;4983154;28;118167;-73
2022/10/04 10:44:25;;;;;;;6.03;2.40;;;16.10;90.90;;;16.84;53.66;99315.00;4985201;28;124279;-72
2022/10/04 10:47:11;;;;;;;5.77;3.07;;;16.20;91.00;;;16.97;53.06;99313.91;4983602;28;123930;-72
2022/10/04 10:50:17;;;;;;;6.33;2.77;;;16.30;90.80;;;17.11;53.06;99308.03;4977628;28;120159;-72
2022/10/04 10:53:09;;;;;;;5.13;3.20;;;16.40;90.70;;;17.25;52.57;99313.31;4977992;28;119812;-72
2022/10/04 10:55:57;;;;;;;8.83;3.03;;;16.60;90.60;;;17.38;52.42;99307.44;4981025;28;122940;-72
2022/10/04 10:58:56;;;;;;;4.77;2.80;;;16.70;90.40;;;17.54;52.20;99315.13;4986870;28;124053;-72
2022/10/04 11:01:40;;;;;;;5.47;3.13;;;15.70;89.70;;;17.67;51.88;99311.19;4982728;28;119877;-72
2022/10/04 11:04:30;;;;;;;4.60;2.23;;;17.00;90.20;;;17.79;51.70;99310.44;4977019;28;119034;-74
2022/10/04 11:07:13;;;;;;;2.67;1.90;;;17.10;90.10;;;17.88;51.35;99302.75;4983762;28;123919;-72
2022/10/04 11:10:25;;;;;;;3.60;1.90;;;17.20;90.00;;;17.97;51.16;99306.22;4983358;28;124758;-73
2022/10/04 11:13:25;;;;;;;4.83;2.37;;;17.30;89.30;;;18.11;51.01;99300.31;4962201;28;119736;-73
2022/10/04 11:16:09;;;;;;;4.80;2.07;;;17.40;89.30;;;18.25;50.82;99294.34;4984767;28;119410;-73
2022/10/04 11:19:22;;;;;;;3.60;2.40;;;17.50;89.30;;;18.41;50.49;99298.03;4974915;28;124025;-73
2022/10/04 11:22:06;;;;;;;2.77;2.30;;;17.70;88.80;;;18.58;50.19;99296.94;4981115;28;123706;-72
2022/10/04 11:25:06;;;;;;;2.93;1.90;;;17.80;88.70;;;18.73;49.79;99289.81;4980961;28;119001;-72
2022/10/04 11:27:44;;;;;;;5.00;2.20;;;18.00;88.10;;;18.86;49.37;99287.78;4972366;28;117849;-72
2022/10/04 11:30:27;;;;;;;4.23;2.40;;;18.10;88.00;;;18.97;49.29;99292.53;4984826;28;124297;-71
2022/10/04 11:33:54;;;;;;;4.93;2.40;;;18.30;87.70;;;19.10;49.49;99278.47;4975755;28;124141;-72
2022/10/04 11:37:16;;;;;;;3.50;2.00;;;18.40;87.60;;;19.24;49.09;99269.66;4967014;28;118825;-72